Time;durP1;ratioP1;P1;durP2;ratioP2;P2;SDS_P1;SDS_P2;PMS_P1;PMS_P2;Temp;Humidity;BMP_temperature;BMP_pressure;BME280_temperature;BME280_humidity;BME280_pressure;Samples;Min_cycle;Max_cycle;Signal;HPM_P1;HPM_P2
2023/09/20 00:01:36;;;;;;;13.90;2.65;;;17.70;99.90;;;;;;5032686;28;20045;-54
2023/09/20 00:04:06;;;;;;;13.05;3.10;;;17.70;99.90;;;;;;5032826;28;20439;-62
2023/09/20 00:06:33;;;;;;;9.30;2.53;;;17.70;99.90;;;;;;5032969;28;20045;-57
2023/09/20 00:09:02;;;;;;;8.23;2.50;;;17.60;99.90;;;;;;5031135;28;20038;-56
2023/09/20 00:11:29;;;;;;;9.40;2.50;;;17.60;99.90;;;;;;5031948;28;20124;-58
2023/09/20 00:13:59;;;;;;;9.90;2.40;;;17.60;99.90;;;;;;5036597;28;20042;-57
2023/09/20 00:16:28;;;;;;;9.02;2.30;;;17.60;99.90;;;;;;5036687;28;20385;-58
2023/09/20 00:18:55;;;;;;;9.23;2.33;;;17.70;99.90;;;;;;5036227;28;20380;-56
2023/09/20 00:21:23;;;;;;;7.93;2.22;;;17.60;99.90;;;;;;5036704;28;20120;-58
2023/09/20 00:23:50;;;;;;;10.40;2.45;;;17.60;99.90;;;;;;5035248;28;20048;-55
2023/09/20 00:26:20;;;;;;;10.02;2.40;;;17.60;99.90;;;;;;5036547;28;20420;-54
2023/09/20 00:28:49;;;;;;;9.07;2.47;;;17.60;99.90;;;;;;5036492;28;20473;-59
2023/09/20 00:31:16;;;;;;;13.77;2.15;;;17.60;99.90;;;;;;5034489;28;20099;-56
2023/09/20 00:33:43;;;;;;;12.13;2.60;;;17.60;99.90;;;;;;5036715;28;20049;-57
2023/09/20 00:36:12;;;;;;;9.23;2.50;;;17.60;99.90;;;;;;5034994;28;20045;-54
2023/09/20 00:38:39;;;;;;;9.48;2.53;;;17.60;99.90;;;;;;5036511;28;20443;-58
2023/09/20 00:41:07;;;;;;;8.05;2.50;;;17.60;99.90;;;;;;5034624;28;20051;-53
2023/09/20 00:43:34;;;;;;;9.05;2.40;;;17.60;99.90;;;;;;5036125;28;20133;-54
2023/09/20 00:46:00;;;;;;;8.65;2.35;;;17.60;99.90;;;;;;5036110;28;20046;-56
2023/09/20 00:48:30;;;;;;;6.90;2.13;;;17.60;99.90;;;;;;5034029;28;20046;-59
2023/09/20 00:50:56;;;;;;;8.65;2.30;;;17.60;99.90;;;;;;5035989;28;20369;-58
2023/09/20 00:53:23;;;;;;;9.50;2.38;;;17.60;99.90;;;;;;5035277;28;20489;-56
2023/09/20 00:55:50;;;;;;;8.68;2.15;;;17.60;99.90;;;;;;5035580;28;20144;-57
2023/09/20 00:58:17;;;;;;;8.02;2.22;;;17.70;99.90;;;;;;5034510;28;20400;-58
2023/09/20 01:00:45;;;;;;;10.65;2.22;;;17.70;99.90;;;;;;5036081;28;20044;-58
2023/09/20 01:03:11;;;;;;;5.75;2.30;;;17.70;99.90;;;;;;5035673;28;20499;-57
2023/09/20 01:05:39;;;;;;;8.57;2.28;;;17.70;99.90;;;;;;5034110;28;20038;-58
2023/09/20 01:08:06;;;;;;;7.85;2.55;;;17.70;99.90;;;;;;5035235;28;20058;-56
2023/09/20 01:10:36;;;;;;;7.75;2.33;;;17.70;99.90;;;;;;5034677;28;20046;-56
2023/09/20 01:13:04;;;;;;;10.98;2.22;;;17.70;99.90;;;;;;5035736;28;20052;-53
2023/09/20 01:15:31;;;;;;;9.32;2.90;;;17.70;99.90;;;;;;5034320;28;20144;-60
2023/09/20 01:17:58;;;;;;;7.82;2.20;;;17.70;99.90;;;;;;5035363;28;20547;-59
2023/09/20 01:20:25;;;;;;;12.90;3.20;;;17.70;99.90;;;;;;5034034;28;20037;-55
2023/09/20 01:22:54;;;;;;;9.63;2.10;;;17.70;99.90;;;;;;5033888;28;20072;-59
2023/09/20 01:25:22;;;;;;;11.45;2.63;;;17.70;99.90;;;;;;5034339;28;20565;-60
2023/09/20 01:27:50;;;;;;;11.40;2.90;;;17.70;99.90;;;;;;5034972;28;20061;-52
2023/09/20 01:30:17;;;;;;;7.15;2.25;;;17.60;99.90;;;;;;5035510;28;20364;-61
2023/09/20 01:32:44;;;;;;;11.20;2.33;;;17.60;99.90;;;;;;5033632;28;20515;-60
2023/09/20 01:35:11;;;;;;;8.25;2.50;;;17.60;99.90;;;;;;5034877;28;20052;-58
2023/09/20 01:37:38;;;;;;;10.15;2.50;;;17.50;99.90;;;;;;5035289;28;20571;-57
2023/09/20 01:40:14;;;;;;;10.95;3.05;;;17.50;99.90;;;;;;5034465;28;20034;-57
2023/09/20 01:42:42;;;;;;;7.22;2.40;;;17.50;99.90;;;;;;5033588;28;20041;-57
2023/09/20 01:45:14;;;;;;;9.45;2.17;;;17.50;99.90;;;;;;5034790;28;20041;-60
2023/09/20 01:47:41;;;;;;;7.45;2.40;;;17.50;99.90;;;;;;5035120;28;20051;-58
2023/09/20 01:50:10;;;;;;;8.90;2.97;;;17.50;99.90;;;;;;5034486;28;20121;-62
2023/09/20 01:52:37;;;;;;;8.93;2.25;;;17.40;99.90;;;;;;5034562;28;20065;-54
2023/09/20 01:55:04;;;;;;;8.50;2.65;;;17.50;99.90;;;;;;5033656;28;20038;-56
2023/09/20 01:57:31;;;;;;;8.60;2.05;;;17.50;99.90;;;;;;5035130;28;20045;-61
2023/09/20 01:59:58;;;;;;;11.30;2.88;;;17.40;99.90;;;;;;5033126;28;20037;-57
2023/09/20 02:02:26;;;;;;;6.93;2.30;;;17.40;99.90;;;;;;5032974;28;20041;-54
2023/09/20 02:04:53;;;;;;;8.20;2.40;;;17.40;99.90;;;;;;5034795;28;20361;-53
2023/09/20 02:07:21;;;;;;;9.40;2.55;;;17.40;99.90;;;;;;5034313;28;20358;-53
2023/09/20 02:09:47;;;;;;;8.25;2.40;;;17.40;99.90;;;;;;5034696;28;20041;-48
2023/09/20 02:12:15;;;;;;;8.55;2.63;;;17.40;99.90;;;;;;5033931;28;20505;-58
2023/09/20 02:14:42;;;;;;;9.10;2.20;;;17.40;99.90;;;;;;5032623;28;20424;-58
2023/09/20 02:17:08;;;;;;;10.80;2.40;;;17.40;99.90;;;;;;5032600;28;20042;-55
2023/09/20 02:19:36;;;;;;;9.13;2.40;;;17.40;99.90;;;;;;5034769;28;20124;-51
2023/09/20 02:22:06;;;;;;;8.63;2.20;;;17.40;99.90;;;;;;5034491;28;20045;-58
2023/09/20 02:24:33;;;;;;;9.00;2.50;;;17.40;99.90;;;;;;5034023;28;20037;-59
2023/09/20 02:27:00;;;;;;;9.18;2.47;;;17.40;99.90;;;;;;5033548;28;20121;-57
2023/09/20 02:29:27;;;;;;;8.02;2.50;;;17.40;99.90;;;;;;5034029;28;20045;-60
2023/09/20 02:31:54;;;;;;;8.73;2.92;;;17.30;99.90;;;;;;5033916;28;20473;-52
2023/09/20 02:34:21;;;;;;;13.57;3.25;;;17.30;99.90;;;;;;5034292;28;20033;-59
2023/09/20 02:36:48;;;;;;;8.90;2.30;;;17.30;99.90;;;;;;5033045;28;20368;-56
2023/09/20 02:39:17;;;;;;;12.57;2.97;;;17.30;99.90;;;;;;5033869;28;20488;-57
2023/09/20 02:41:44;;;;;;;9.45;2.38;;;17.40;99.90;;;;;;5034165;28;20144;-56
2023/09/20 02:44:12;;;;;;;8.20;2.97;;;17.40;99.90;;;;;;5032628;28;20037;-56
2023/09/20 02:46:40;;;;;;;14.32;3.00;;;17.40;99.90;;;;;;5032074;28;20045;-61
2023/09/20 02:49:07;;;;;;;9.73;2.70;;;17.40;99.90;;;;;;5032134;28;20091;-56
2023/09/20 02:51:35;;;;;;;11.65;2.83;;;17.30;99.90;;;;;;5034346;28;20095;-53
2023/09/20 02:54:02;;;;;;;8.77;2.40;;;17.30;99.90;;;;;;5032690;28;20051;-54
2023/09/20 02:56:29;;;;;;;8.32;2.20;;;17.30;99.90;;;;;;5015537;28;20128;-59
2023/09/20 02:58:55;;;;;;;9.10;2.92;;;17.30;99.90;;;;;;5032528;28;20472;-64
2023/09/20 03:01:24;;;;;;;8.75;2.60;;;17.30;99.90;;;;;;5032045;28;20045;-52
2023/09/20 03:03:51;;;;;;;10.07;3.08;;;17.30;99.90;;;;;;5032055;28;20040;-56
2023/09/20 03:06:18;;;;;;;11.80;2.75;;;17.30;99.90;;;;;;5015686;28;20084;-59
2023/09/20 03:08:45;;;;;;;5.97;2.13;;;17.30;99.90;;;;;;5032433;28;20049;-47
2023/09/20 03:11:13;;;;;;;7.82;2.00;;;17.20;99.90;;;;;;5031950;28;20048;-59
2023/09/20 03:13:41;;;;;;;7.93;2.40;;;17.20;99.90;;;;;;5032331;28;20045;-53
2023/09/20 03:16:09;;;;;;;7.05;2.15;;;17.20;99.90;;;;;;5032374;28;20160;-58
2023/09/20 03:18:36;;;;;;;8.75;2.20;;;17.30;99.90;;;;;;5032243;28;20041;-55
2023/09/20 03:21:05;;;;;;;7.97;2.47;;;17.30;99.90;;;;;;5032371;28;20080;-55
2023/09/20 03:23:33;;;;;;;5.90;1.92;;;17.30;99.90;;;;;;5031880;28;20045;-58
2023/09/20 03:26:02;;;;;;;6.82;1.80;;;17.30;99.90;;;;;;5031850;28;20124;-60
2023/09/20 03:28:29;;;;;;;7.07;2.00;;;17.30;99.90;;;;;;5031555;28;20504;-50
2023/09/20 03:30:59;;;;;;;8.00;2.35;;;17.30;99.90;;;;;;5031874;28;20132;-52
2023/09/20 03:33:27;;;;;;;6.82;1.80;;;17.30;99.90;;;;;;5031700;28;20060;-47
2023/09/20 03:35:54;;;;;;;7.72;2.10;;;17.30;99.90;;;;;;5031217;28;20037;-55
2023/09/20 03:38:21;;;;;;;8.52;2.70;;;17.20;99.90;;;;;;5031747;28;20042;-63
2023/09/20 03:40:51;;;;;;;6.22;2.13;;;17.10;99.90;;;;;;5031576;28;20401;-52
2023/09/20 03:43:18;;;;;;;6.25;2.20;;;17.10;99.90;;;;;;5033344;28;20072;-57
2023/09/20 03:45:48;;;;;;;6.75;2.00;;;17.00;99.90;;;;;;5031256;28;20049;-61
2023/09/20 03:48:16;;;;;;;5.10;1.80;;;17.00;99.90;;;;;;5035839;28;20060;-53
2023/09/20 03:50:45;;;;;;;5.85;2.25;;;17.00;99.90;;;;;;5036886;28;20058;-63
2023/09/20 03:53:13;;;;;;;7.40;2.00;;;17.00;99.90;;;;;;5035806;28;20050;-55
2023/09/20 03:55:45;;;;;;;4.93;1.90;;;17.00;99.90;;;;;;5035389;28;20084;-52
2023/09/20 03:58:13;;;;;;;7.32;2.55;;;17.00;99.90;;;;;;5035495;28;20041;-54
2023/09/20 04:00:42;;;;;;;6.03;2.17;;;17.00;99.90;;;;;;5035973;28;20049;-58
2023/09/20 04:03:11;;;;;;;9.27;2.38;;;17.00;99.90;;;;;;5036507;28;20052;-56
2023/09/20 04:05:39;;;;;;;6.53;2.30;;;17.00;99.90;;;;;;5035385;28;20107;-55
2023/09/20 04:08:16;;;;;;;7.68;2.33;;;17.00;99.90;;;;;;5035154;28;20111;-53
2023/09/20 04:10:45;;;;;;;6.80;2.00;;;17.00;99.90;;;;;;5035348;28;20068;-53
2023/09/20 04:13:13;;;;;;;8.30;2.28;;;17.10;99.90;;;;;;5035509;28;20475;-60
2023/09/20 04:15:42;;;;;;;6.07;2.38;;;17.10;99.90;;;;;;5034859;28;20144;-56
2023/09/20 04:18:10;;;;;;;6.75;2.60;;;17.10;99.90;;;;;;5034834;28;20037;-52
2023/09/20 04:20:37;;;;;;;6.68;2.10;;;17.10;99.90;;;;;;5018324;28;20068;-55
2023/09/20 04:23:06;;;;;;;7.85;2.50;;;17.10;99.90;;;;;;5035316;28;20052;-58
2023/09/20 04:25:33;;;;;;;7.90;2.00;;;17.10;99.90;;;;;;5035136;28;20048;-58
2023/09/20 04:28:00;;;;;;;9.95;2.55;;;17.20;99.90;;;;;;5035365;28;20068;-62
2023/09/20 04:30:28;;;;;;;6.82;1.90;;;17.20;99.90;;;;;;5034716;28;20044;-57
2023/09/20 04:32:55;;;;;;;8.57;2.10;;;17.10;99.90;;;;;;5034474;28;20053;-56
2023/09/20 04:35:37;;;;;;;10.02;2.30;;;17.10;99.90;;;;;;5035293;28;20473;-59
2023/09/20 04:38:08;;;;;;;4.53;1.90;;;17.00;99.90;;;;;;5034966;28;20115;-57
2023/09/20 04:40:35;;;;;;;6.22;1.77;;;17.00;99.90;;;;;;5034627;28;20562;-56
2023/09/20 04:43:02;;;;;;;9.23;2.20;;;16.90;99.90;;;;;;5034892;28;20033;-61
2023/09/20 04:45:30;;;;;;;7.35;2.05;;;16.80;99.90;;;;;;5034931;28;20141;-59
2023/09/20 04:47:57;;;;;;;6.65;2.05;;;16.80;99.90;;;;;;5034621;28;20095;-57
2023/09/20 04:50:25;;;;;;;4.95;2.08;;;16.80;99.90;;;;;;5035297;28;20095;-55
2023/09/20 04:52:52;;;;;;;4.90;2.10;;;16.70;99.90;;;;;;5035573;28;20060;-58
2023/09/20 04:55:19;;;;;;;8.02;2.65;;;16.70;99.90;;;;;;5034321;28;20049;-58
2023/09/20 04:57:47;;;;;;;10.77;3.17;;;16.70;99.90;;;;;;5034148;28;20040;-60
2023/09/20 05:00:16;;;;;;;7.78;2.85;;;16.60;99.90;;;;;;5034667;28;20042;-54
2023/09/20 05:02:44;;;;;;;8.00;3.63;;;16.60;99.90;;;;;;5034184;28;20501;-56
2023/09/20 05:05:12;;;;;;;7.65;2.80;;;16.60;99.90;;;;;;5034653;28;20465;-58
2023/09/20 05:07:40;;;;;;;7.88;3.40;;;16.60;99.90;;;;;;5033945;28;20180;-56
2023/09/20 05:10:08;;;;;;;10.15;3.95;;;16.60;99.90;;;;;;5034400;28;20049;-53
2023/09/20 05:12:35;;;;;;;7.97;3.47;;;16.60;99.90;;;;;;5033840;28;20054;-58
2023/09/20 05:15:03;;;;;;;6.97;3.10;;;16.60;99.90;;;;;;5034560;28;20045;-52
2023/09/20 05:17:30;;;;;;;13.02;3.97;;;16.60;99.90;;;;;;5035000;28;20083;-54
2023/09/20 05:19:58;;;;;;;8.25;3.47;;;16.60;99.90;;;;;;5034325;28;20101;-50
2023/09/20 05:22:25;;;;;;;9.10;3.58;;;16.60;99.90;;;;;;5034076;28;20095;-53
2023/09/20 05:24:52;;;;;;;9.23;3.58;;;16.60;99.90;;;;;;5034450;28;20198;-57
2023/09/20 05:27:19;;;;;;;11.10;3.53;;;16.60;99.90;;;;;;5035292;28;20084;-61
2023/09/20 05:29:46;;;;;;;10.30;3.47;;;16.60;99.90;;;;;;5033723;28;20136;-56
2023/09/20 05:32:13;;;;;;;11.23;3.60;;;16.60;99.90;;;;;;5033634;28;20069;-56
2023/09/20 05:34:40;;;;;;;9.88;3.75;;;16.60;99.90;;;;;;5035614;28;20053;-56
2023/09/20 05:37:07;;;;;;;8.68;3.25;;;16.60;99.90;;;;;;5035088;28;20076;-56
2023/09/20 05:39:34;;;;;;;6.22;2.58;;;16.70;99.90;;;;;;5035357;28;20049;-60
2023/09/20 05:42:01;;;;;;;10.20;2.97;;;16.70;99.90;;;;;;5033681;28;20045;-59
2023/09/20 05:44:29;;;;;;;7.72;2.42;;;16.70;99.90;;;;;;5034833;28;20038;-54
2023/09/20 05:46:56;;;;;;;7.57;2.28;;;16.70;99.90;;;;;;5034463;28;20461;-61
2023/09/20 05:49:23;;;;;;;7.40;2.38;;;16.80;99.90;;;;;;5034450;28;20115;-49
2023/09/20 05:51:52;;;;;;;5.53;2.17;;;16.80;99.90;;;;;;5034667;28;20049;-53
2023/09/20 05:54:19;;;;;;;6.60;2.17;;;16.90;99.90;;;;;;5034399;28;20049;-54
2023/09/20 05:56:46;;;;;;;7.63;2.15;;;16.90;99.90;;;;;;5034845;28;20091;-59
2023/09/20 05:59:13;;;;;;;8.25;2.13;;;17.00;99.90;;;;;;5035020;28;20041;-54
2023/09/20 06:01:40;;;;;;;6.07;2.10;;;17.00;99.90;;;;;;5034383;28;20449;-52
2023/09/20 06:04:10;;;;;;;5.35;2.25;;;17.00;99.90;;;;;;5034461;28;20041;-55
2023/09/20 06:06:37;;;;;;;5.88;2.20;;;17.10;99.90;;;;;;5034561;28;20042;-57
2023/09/20 06:09:05;;;;;;;7.22;2.65;;;17.10;99.90;;;;;;5034653;28;20045;-54
2023/09/20 06:11:32;;;;;;;6.93;2.47;;;17.10;99.90;;;;;;5033970;28;20041;-53
2023/09/20 06:13:59;;;;;;;8.07;2.63;;;17.10;99.90;;;;;;5034687;28;20057;-52
2023/09/20 06:16:25;;;;;;;7.13;2.38;;;17.20;99.90;;;;;;5034306;28;20192;-56
2023/09/20 06:18:52;;;;;;;11.27;3.38;;;17.20;99.90;;;;;;5034260;28;20079;-58
2023/09/20 06:21:33;;;;;;;9.70;3.30;;;17.20;99.90;;;;;;5034314;28;20088;-52
2023/09/20 06:24:01;;;;;;;8.10;3.58;;;17.20;99.90;;;;;;5033853;28;20052;-58
2023/09/20 06:26:28;;;;;;;11.20;4.10;;;17.20;99.90;;;;;;5034034;28;20049;-61
2023/09/20 06:28:55;;;;;;;13.82;4.53;;;17.20;99.90;;;;;;5033902;28;20116;-59
2023/09/20 06:31:22;;;;;;;13.60;5.00;;;17.10;99.90;;;;;;5033815;28;20069;-52
2023/09/20 06:33:49;;;;;;;17.02;5.50;;;17.10;99.90;;;;;;5034134;28;20045;-57
2023/09/20 06:36:17;;;;;;;14.05;5.50;;;17.10;99.90;;;;;;5034081;28;20368;-56
2023/09/20 06:38:44;;;;;;;15.35;5.75;;;17.10;99.90;;;;;;5033885;28;20049;-57
2023/09/20 06:41:12;;;;;;;14.55;6.00;;;17.10;99.90;;;;;;5034350;28;20099;-51
2023/09/20 06:43:38;;;;;;;11.70;5.78;;;17.20;99.90;;;;;;5032455;28;20041;-58
2023/09/20 06:46:05;;;;;;;17.08;6.45;;;17.30;99.90;;;;;;5032616;28;20046;-62
2023/09/20 06:48:32;;;;;;;14.05;6.30;;;17.30;99.90;;;;;;5032017;28;20132;-60
2023/09/20 06:51:00;;;;;;;12.63;5.70;;;17.30;99.90;;;;;;5032417;28;20507;-58
2023/09/20 06:53:27;;;;;;;16.98;6.28;;;17.30;99.90;;;;;;5033510;28;20041;-60
2023/09/20 06:55:54;;;;;;;17.15;6.22;;;17.40;99.90;;;;;;5033512;28;20491;-60
2023/09/20 06:58:21;;;;;;;14.93;5.57;;;17.40;99.90;;;;;;5033120;28;20041;-58
2023/09/20 07:00:52;;;;;;;12.45;5.78;;;17.50;99.90;;;;;;5033180;28;20492;-58
2023/09/20 07:03:19;;;;;;;14.32;6.05;;;17.50;99.90;;;;;;5033309;28;20061;-52
2023/09/20 07:05:46;;;;;;;13.35;6.53;;;17.50;99.90;;;;;;5033703;28;20052;-60
2023/09/20 07:08:14;;;;;;;19.38;7.03;;;17.60;99.90;;;;;;5033565;28;20038;-55
2023/09/20 07:10:42;;;;;;;14.73;5.75;;;17.60;99.90;;;;;;5033392;28;20045;-57
2023/09/20 07:13:10;;;;;;;18.63;6.13;;;17.60;99.90;;;;;;5033552;28;20469;-58
2023/09/20 07:15:37;;;;;;;16.20;6.57;;;17.60;99.90;;;;;;5033112;28;20091;-56
2023/09/20 07:18:23;;;;;;;17.83;6.63;;;17.60;99.90;;;;;;5033085;28;20038;-60
2023/09/20 07:20:54;;;;;;;15.38;6.38;;;17.70;99.90;;;;;;5033497;28;20041;-56
2023/09/20 07:23:21;;;;;;;17.35;7.93;;;17.70;99.90;;;;;;5014497;28;20042;-57
2023/09/20 07:25:49;;;;;;;16.80;7.78;;;17.70;99.90;;;;;;5015056;28;20507;-57
2023/09/20 07:28:16;;;;;;;14.77;6.60;;;17.70;99.90;;;;;;5032772;28;20120;-60
2023/09/20 07:30:46;;;;;;;14.10;6.40;;;17.70;99.90;;;;;;5031880;28;20095;-52
2023/09/20 07:33:18;;;;;;;14.77;6.20;;;17.70;99.90;;;;;;5032019;28;20056;-60
2023/09/20 07:35:52;;;;;;;15.43;6.25;;;17.70;99.90;;;;;;5032433;28;20072;-52
2023/09/20 07:38:26;;;;;;;13.80;5.68;;;17.80;99.90;;;;;;5031669;28;20042;-60
2023/09/20 07:40:54;;;;;;;13.43;5.68;;;17.80;99.90;;;;;;5032370;28;20042;-53
2023/09/20 07:43:22;;;;;;;16.23;5.88;;;17.80;99.90;;;;;;5032092;28;20033;-53
2023/09/20 07:45:55;;;;;;;15.05;5.95;;;17.90;99.90;;;;;;5032061;28;20068;-54
2023/09/20 07:48:22;;;;;;;11.65;5.28;;;17.90;99.90;;;;;;5032617;28;20069;-51
2023/09/20 07:50:49;;;;;;;15.52;5.45;;;18.00;99.90;;;;;;5032405;28;20111;-56
2023/09/20 07:53:16;;;;;;;15.23;6.03;;;18.10;99.90;;;;;;5032747;28;20049;-56
2023/09/20 07:55:45;;;;;;;13.65;5.93;;;18.10;99.90;;;;;;5032817;28;20120;-53
2023/09/20 07:58:13;;;;;;;15.40;6.05;;;18.20;99.90;;;;;;5032318;28;20065;-53
2023/09/20 08:00:40;;;;;;;14.60;6.13;;;18.30;99.90;;;;;;5032334;28;20111;-54
2023/09/20 08:03:07;;;;;;;16.77;5.97;;;18.30;99.90;;;;;;5032474;28;20048;-52
2023/09/20 08:05:33;;;;;;;14.25;5.97;;;18.40;99.90;;;;;;5033009;28;20408;-51
2023/09/20 08:08:00;;;;;;;14.05;5.88;;;18.40;99.90;;;;;;5032677;28;20046;-56
2023/09/20 08:10:27;;;;;;;15.00;5.72;;;18.40;99.90;;;;;;5032230;28;20561;-59
2023/09/20 08:12:54;;;;;;;19.85;6.50;;;18.40;99.90;;;;;;5033071;28;20397;-55
2023/09/20 08:15:21;;;;;;;16.52;5.95;;;18.40;99.90;;;;;;5031792;28;20095;-54
2023/09/20 08:20:37;;;;;;;12.90;5.10;;;18.50;99.90;;;;;;5033156;28;20049;-54
2023/09/20 09:01:44;;;;;;;14.48;5.53;;;19.40;99.90;;;;;;5035676;28;20048;-57
2023/09/20 09:04:12;;;;;;;12.60;5.60;;;19.40;99.90;;;;;;5035509;28;20041;-53
2023/09/20 09:06:39;;;;;;;13.18;5.30;;;19.40;99.90;;;;;;5035262;28;20100;-58
2023/09/20 09:09:06;;;;;;;13.82;5.28;;;19.40;99.90;;;;;;5035984;28;20050;-54
2023/09/20 09:11:32;;;;;;;12.68;4.95;;;19.50;99.90;;;;;;5035011;28;20112;-56
2023/09/20 09:14:00;;;;;;;13.73;5.10;;;19.50;99.90;;;;;;5034126;28;20121;-54
2023/09/20 09:16:27;;;;;;;14.85;5.05;;;19.60;99.90;;;;;;5035105;28;20047;-59
2023/09/20 09:18:54;;;;;;;12.50;5.00;;;19.60;99.90;;;;;;5033908;28;20166;-58
2023/09/20 09:21:22;;;;;;;13.65;5.15;;;19.60;99.90;;;;;;5034860;28;20033;-56
2023/09/20 09:23:48;;;;;;;15.57;5.07;;;19.60;99.90;;;;;;5033889;28;20099;-63
2023/09/20 09:26:16;;;;;;;13.68;4.85;;;19.60;99.90;;;;;;5033875;28;20376;-53
2023/09/20 09:28:43;;;;;;;15.82;5.57;;;19.70;99.90;;;;;;5027662;28;20042;-54
2023/09/20 09:31:10;;;;;;;17.08;5.32;;;19.80;99.90;;;;;;5028248;28;20049;-56
2023/09/20 09:33:37;;;;;;;13.75;4.78;;;19.90;99.90;;;;;;5027134;28;20092;-53
2023/09/20 09:36:04;;;;;;;14.18;4.85;;;20.00;99.90;;;;;;5034667;28;20120;-58
2023/09/20 09:38:35;;;;;;;12.77;4.55;;;20.20;99.90;;;;;;5033787;28;20049;-58
2023/09/20 09:41:01;;;;;;;14.13;4.75;;;20.30;99.90;;;;;;5028381;28;20041;-52
2023/09/20 09:43:28;;;;;;;12.50;4.70;;;20.40;99.90;;;;;;5028569;28;20046;-52
2023/09/20 09:45:55;;;;;;;17.65;5.22;;;20.30;99.90;;;;;;5033799;28;20477;-58
2023/09/20 09:48:27;;;;;;;17.90;4.70;;;20.00;99.90;;;;;;5033684;28;20432;-53
2023/09/20 09:50:55;;;;;;;14.00;5.15;;;19.80;99.90;;;;;;5028628;28;20045;-53
2023/09/20 09:53:21;;;;;;;15.35;5.35;;;19.70;99.90;;;;;;5033401;28;20050;-59
2023/09/20 09:55:49;;;;;;;16.52;4.90;;;19.60;99.90;;;;;;5028227;28;20041;-57
2023/09/20 09:58:16;;;;;;;16.90;5.07;;;19.50;99.90;;;;;;5028157;28;20045;-61
2023/09/20 10:00:45;;;;;;;15.27;4.90;;;19.50;99.90;;;;;;5031408;28;20121;-54
2023/09/20 10:03:12;;;;;;;14.50;5.03;;;19.60;99.90;;;;;;5027803;28;20072;-54
2023/09/20 10:05:39;;;;;;;14.07;4.35;;;19.80;99.90;;;;;;5027431;28;20033;-57
2023/09/20 10:08:07;;;;;;;13.60;5.10;;;19.80;99.90;;;;;;5033157;28;20060;-55
2023/09/20 10:10:34;;;;;;;13.60;4.50;;;19.80;99.90;;;;;;5026130;28;20049;-59
2023/09/20 10:13:03;;;;;;;13.77;4.63;;;19.80;99.90;;;;;;5033274;28;20378;-53
2023/09/20 10:15:32;;;;;;;15.90;5.05;;;19.80;99.90;;;;;;5027516;28;20496;-59
2023/09/20 10:17:59;;;;;;;15.68;4.30;;;19.90;99.90;;;;;;5025399;28;20460;-55
2023/09/20 10:20:27;;;;;;;12.60;4.68;;;20.00;99.90;;;;;;5027922;28;20104;-59
2023/09/20 10:22:53;;;;;;;14.77;4.70;;;20.10;99.90;;;;;;5026610;28;20041;-57
2023/09/20 10:25:20;;;;;;;16.55;5.07;;;20.20;99.90;;;;;;5033588;28;20037;-55
2023/09/20 10:27:47;;;;;;;12.13;4.07;;;20.30;99.90;;;;;;5032781;28;20041;-59
2023/09/20 10:30:21;;;;;;;13.50;4.50;;;20.40;99.90;;;;;;5033477;28;20472;-56
2023/09/20 10:32:47;;;;;;;15.93;4.53;;;20.40;99.90;;;;;;5032439;28;20053;-61
2023/09/20 10:35:14;;;;;;;16.40;4.88;;;20.60;99.90;;;;;;5029968;28;20046;-54
2023/09/20 10:37:43;;;;;;;14.55;4.70;;;20.70;99.90;;;;;;5031657;28;20033;-57
2023/09/20 10:40:11;;;;;;;16.55;4.88;;;20.80;99.90;;;;;;5024334;28;20455;-53
2023/09/20 10:42:38;;;;;;;11.27;3.97;;;20.90;99.90;;;;;;5032851;28;20492;-55
2023/09/20 10:45:05;;;;;;;22.23;4.85;;;20.90;99.90;;;;;;5029868;28;20029;-53
2023/09/20 10:47:32;;;;;;;26.67;4.75;;;20.90;99.90;;;;;;5032185;28;20048;-59
2023/09/20 10:49:59;;;;;;;14.82;4.40;;;20.90;99.90;;;;;;5025811;28;20056;-57
2023/09/20 10:52:26;;;;;;;15.88;4.47;;;20.90;99.90;;;;;;5026491;28;20052;-56
2023/09/20 10:54:53;;;;;;;12.52;4.28;;;21.00;99.90;;;;;;5032662;28;20049;-55
2023/09/20 10:57:23;;;;;;;14.63;4.82;;;21.10;99.90;;;;;;5031535;28;20097;-60
2023/09/20 10:59:53;;;;;;;12.90;4.68;;;21.30;99.90;;;;;;5026700;28;20117;-56
2023/09/20 11:02:20;;;;;;;14.50;4.50;;;21.30;99.90;;;;;;5025614;28;20056;-60
2023/09/20 11:04:49;;;;;;;12.38;4.43;;;21.10;99.90;;;;;;5032800;28;20037;-58
2023/09/20 11:07:16;;;;;;;14.32;4.07;;;21.10;99.90;;;;;;5022945;28;20037;-52
2023/09/20 11:09:46;;;;;;;12.38;4.38;;;21.00;99.90;;;;;;5032961;28;20041;-59
2023/09/20 11:12:14;;;;;;;16.10;5.00;;;21.00;99.90;;;;;;5032421;28;20049;-59
2023/09/20 11:14:41;;;;;;;17.27;4.90;;;20.90;99.90;;;;;;5021735;28;20048;-52
2023/09/20 11:17:08;;;;;;;16.05;4.95;;;20.80;99.90;;;;;;5032437;28;20041;-62
2023/09/20 11:19:35;;;;;;;17.30;4.65;;;20.60;99.90;;;;;;5031457;28;20378;-55
2023/09/20 11:22:02;;;;;;;16.10;4.88;;;20.50;99.90;;;;;;5031584;28;20485;-58
2023/09/20 11:24:28;;;;;;;16.38;5.22;;;20.30;99.90;;;;;;5032024;28;20030;-62
2023/09/20 11:26:55;;;;;;;15.30;5.03;;;20.20;99.90;;;;;;5031639;28;20153;-59
2023/09/20 11:29:22;;;;;;;13.70;4.22;;;20.10;99.90;;;;;;5025950;28;20034;-60
2023/09/20 11:31:50;;;;;;;15.57;4.88;;;20.00;99.90;;;;;;5026383;28;20048;-59
2023/09/20 11:34:19;;;;;;;16.67;4.53;;;20.00;99.90;;;;;;5025766;28;20049;-60
2023/09/20 11:36:47;;;;;;;16.95;4.93;;;20.00;99.90;;;;;;5026154;28;20048;-61
2023/09/20 11:39:22;;;;;;;16.08;4.72;;;20.10;99.90;;;;;;5032161;28;20440;-53
2023/09/20 11:41:49;;;;;;;13.95;4.30;;;20.10;99.90;;;;;;5027349;28;20049;-50
2023/09/20 11:44:17;;;;;;;15.75;4.57;;;20.10;99.90;;;;;;5032460;28;20037;-53
2023/09/20 11:46:47;;;;;;;17.67;5.05;;;20.10;99.90;;;;;;5032353;28;20148;-52
2023/09/20 11:49:14;;;;;;;14.73;4.72;;;20.10;99.90;;;;;;5031522;28;20500;-58
2023/09/20 11:51:41;;;;;;;14.10;4.30;;;20.00;99.90;;;;;;5031047;28;20120;-57
2023/09/20 11:54:10;;;;;;;13.80;4.05;;;20.00;99.90;;;;;;5031199;28;20385;-57
2023/09/20 11:56:37;;;;;;;11.75;3.88;;;20.10;99.90;;;;;;5030471;28;20408;-54
2023/09/20 11:59:05;;;;;;;11.73;3.78;;;20.20;99.90;;;;;;5032053;28;20045;-57
2023/09/20 12:01:36;;;;;;;15.07;4.45;;;20.30;99.90;;;;;;5032242;28;20069;-52
2023/09/20 12:04:03;;;;;;;16.80;4.28;;;20.30;99.90;;;;;;5032187;28;20064;-51
2023/09/20 12:06:31;;;;;;;15.60;4.60;;;20.40;99.90;;;;;;5030828;28;20057;-63
2023/09/20 12:09:01;;;;;;;13.15;4.38;;;20.50;99.90;;;;;;5016640;28;20087;-58
2023/09/20 12:11:28;;;;;;;12.70;4.20;;;20.60;99.90;;;;;;5036073;28;20056;-59
2023/09/20 12:13:56;;;;;;;14.20;4.68;;;20.60;99.90;;;;;;5035683;28;20123;-53
2023/09/20 12:16:23;;;;;;;16.95;4.53;;;20.60;99.90;;;;;;5034692;28;20049;-60
2023/09/20 12:18:58;;;;;;;16.85;4.75;;;20.40;99.90;;;;;;5035785;28;20444;-53
2023/09/20 12:21:25;;;;;;;15.23;4.63;;;20.50;99.90;;;;;;5035757;28;20105;-54
2023/09/20 12:23:52;;;;;;;15.30;4.53;;;20.40;99.90;;;;;;5035886;28;20041;-59
2023/09/20 12:26:19;;;;;;;13.27;4.50;;;20.40;99.90;;;;;;5035577;28;20060;-61
2023/09/20 12:28:46;;;;;;;19.70;5.28;;;20.20;99.90;;;;;;5035786;28;20053;-60
2023/09/20 12:31:13;;;;;;;15.30;5.45;;;20.00;99.90;;;;;;5035420;28;20091;-57
2023/09/20 12:33:40;;;;;;;17.73;4.88;;;20.00;99.90;;;;;;5034360;28;20041;-59
2023/09/20 12:36:11;;;;;;;15.70;4.60;;;20.10;99.90;;;;;;5035399;28;20124;-56
2023/09/20 12:38:38;;;;;;;18.77;4.90;;;20.20;99.90;;;;;;5034389;28;20400;-59
2023/09/20 12:41:08;;;;;;;16.20;4.45;;;20.30;99.90;;;;;;5035735;28;20053;-48
2023/09/20 12:43:38;;;;;;;17.02;4.30;;;20.20;99.90;;;;;;5035426;28;20112;-50
2023/09/20 12:46:06;;;;;;;15.48;4.28;;;20.20;99.90;;;;;;5035268;28;20045;-56
2023/09/20 12:48:36;;;;;;;13.43;4.05;;;20.30;99.90;;;;;;5035256;28;20041;-57
2023/09/20 12:51:05;;;;;;;17.30;4.40;;;20.30;99.90;;;;;;5035318;28;20549;-58
2023/09/20 12:53:31;;;;;;;15.05;4.20;;;20.30;99.90;;;;;;5033797;28;20037;-54
2023/09/20 12:55:58;;;;;;;19.27;4.57;;;20.40;99.90;;;;;;5035092;28;20128;-55
2023/09/20 12:58:25;;;;;;;14.93;3.95;;;20.40;99.90;;;;;;5034743;28;20496;-57
2023/09/20 13:00:52;;;;;;;15.23;3.97;;;20.40;99.90;;;;;;5035101;28;20125;-56
2023/09/20 13:03:19;;;;;;;15.52;4.63;;;20.40;99.90;;;;;;5035159;28;20041;-56
2023/09/20 13:05:46;;;;;;;15.15;4.55;;;20.50;99.90;;;;;;5035269;28;20408;-59
2023/09/20 13:08:16;;;;;;;13.50;4.18;;;20.50;99.90;;;;;;5034937;28;20489;-53
2023/09/20 13:10:46;;;;;;;14.45;3.95;;;20.50;99.90;;;;;;5034866;28;20220;-58
2023/09/20 13:13:14;;;;;;;17.48;4.20;;;20.60;99.90;;;;;;5033756;28;20121;-56
2023/09/20 13:15:42;;;;;;;13.95;4.00;;;20.50;99.90;;;;;;5034717;28;20037;-57
2023/09/20 13:18:10;;;;;;;15.15;4.07;;;20.30;99.90;;;;;;5032977;28;20041;-54
2023/09/20 13:20:37;;;;;;;12.60;4.13;;;20.20;99.90;;;;;;5034830;28;20481;-58
2023/09/20 13:23:04;;;;;;;16.33;4.30;;;20.10;99.90;;;;;;5034992;28;20034;-55
2023/09/20 13:25:32;;;;;;;13.77;4.15;;;20.10;99.90;;;;;;5033579;28;20112;-60